Share

Bandara Internasional Osaka, Jepang

09:41 AM JST on April 25, 2014 (GMT +0900)
Osaka International (RJOO) Elev 49 ft | 34.78 °N, 135.44 °E | Change Station

Current weather conditions updated 41 minutes ago

Partly Cloudy
Mendung Sebagian
64 °F
Feels Like 64 °F
N
6
Angin Variable Angin from Arah Timur
Matahari Terbit 5:15 AM
Matahari Tenggelam 6:37 PM
Moon Waning Crescent

Today is forecast to be nearly the same temperature as yesterday.

Tekanan 30.27 Inch
Jarak Pandang 6.2 Mil
Awan Few 3500 ft
Titik Embun 41 °F
Kelembaban 42%
Rainfall 0.00 Inch
Snow Depth Not available.
UV 0 out of 16
Pollen Not available.
Air Quality Not available.
Flu Activity Not available.
METAR RJOO 250000Z 09005KT 040V150 9999 FEW035 18/05 Q1025 RMK 1CU035 A3029

More Conditions Fewer Conditions

Tekanan 30.27 Inch
Jarak Pandang 6.2 Mil
Awan Few 3500 ft
Titik Embun 41 °F
Kelembaban 42%
Rainfall 0.00 Inch
Snow Depth Not available.
UV 0 out of 16
Pollen Not available.
Air Quality Not available.
Flu Activity Not available.
METAR RJOO 250000Z 09005KT 040V150 9999 FEW035 18/05 Q1025 RMK 1CU035 A3029

More Conditions Fewer Conditions

10-Day Weather Forecast

Almanac

Astronomi

Apr. 25, 2014 Rise Set
Actual Time 5:15 AM JST 6:37 PM JST
Civil Twilight 4:48 AM JST 7:04 PM JST
Nautical Twilight 4:16 AM JST 7:36 PM JST
Astronomical Twilight 3:43 AM JST 8:09 PM JST
Moon 2:28 AM JST 2:28 PM JST
Length Of Visible Light 14h 16m
Lama Satu Hari
13h 22m
Tomorrow will be 1m 57s longer.
Waning Crescent, 21% of the Moon is Illuminated
Apr 24
Waning Crescent
Apr 29
New
May 6
Triwulan Pertama
May 14
Bulan Purnama
May 21
Kuartil Terakhir

Yesterday's Extremes

Country Highs Country Lows

Community

  • Jone Runs Falls
    Jone Runs Falls
  • Easter in Shenandoah National Park
    Easter in Shenandoah National Park
  • Sunset at Apalachicola Bay, Florida
    Sunset at Apalachicola Bay, Florida
  • Clouds mov'n in
    Clouds mov'n in
  • Stacked
    Stacked

WunderPhotos

Upload Photos

1,704,758 photos uploaded!

Nearby

Snow Depth

Not available.

Coastal Water Temperatures

Lokasi Temperatur
No Stations Reporting

Earthquake Activity

City Distance Mag. Time & Date
No recent earthquake activity has been reported nearby.
Minimum magnitude displayed is 2.5.

Nearby Weather Stations

Station Location Temp Titik Embun Kelembaban Angin Precip. Elev Telah Diperbaharui Type
North Kobe, Kobe 67.4 °F 45 °F 45% Arah Barat  Pada  0.0 mph 0.00 Inch / hr 965 ft 9:40 AM JST Normal
Kyoto, Kyoto 66.7 °F 45 °F 45% Arah Utara  Pada  1.6 mph 0.00 Inch / hr 115 ft 9:39 AM JST Normal

Show More Stations Show Fewer Stations

What do you think?

We're not finished. Please let us know what you like, what you don't like, and what you are still missing.